createdAt,value
2017-10-13T00:00:52.506Z,3.20
2017-10-13T00:03:19.977Z,2.70
2017-10-13T00:05:47.433Z,4.77
2017-10-13T00:08:14.914Z,4.43
2017-10-13T00:10:43.146Z,3.13
2017-10-13T00:13:10.630Z,3.93
2017-10-13T00:15:38.084Z,4.97
2017-10-13T00:18:05.543Z,6.47
2017-10-13T00:20:33.013Z,4.13
2017-10-13T00:23:01.250Z,3.00
2017-10-13T00:25:28.707Z,3.83
2017-10-13T00:27:56.150Z,4.50
2017-10-13T00:30:23.613Z,2.60
2017-10-13T00:32:51.847Z,4.53
2017-10-13T00:35:19.302Z,4.40
2017-10-13T00:37:46.746Z,3.40
2017-10-13T00:40:14.226Z,2.33
2017-10-13T00:42:41.674Z,3.10
2017-10-13T00:45:09.143Z,5.83
2017-10-13T00:47:36.605Z,2.57
2017-10-13T00:50:04.105Z,3.10
2017-10-13T00:52:31.586Z,3.03
2017-10-13T00:54:59.039Z,4.43
2017-10-13T00:57:26.507Z,3.60
2017-10-13T00:59:54.009Z,3.67
2017-10-13T01:02:22.226Z,2.00
2017-10-13T01:04:49.683Z,3.00
2017-10-13T01:07:17.141Z,3.50
2017-10-13T01:09:44.605Z,3.57
2017-10-13T01:12:12.055Z,1.63
2017-10-13T01:14:39.510Z,3.13
2017-10-13T01:17:06.969Z,5.70
2017-10-13T01:19:34.418Z,2.57
2017-10-13T01:22:01.882Z,3.47
2017-10-13T01:24:29.338Z,3.73
2017-10-13T01:26:56.797Z,3.60
2017-10-13T01:29:24.253Z,2.60
2017-10-13T01:31:51.710Z,2.50
2017-10-13T01:34:19.167Z,3.60
2017-10-13T01:36:47.394Z,3.00
2017-10-13T01:39:14.850Z,4.90
2017-10-13T01:41:42.323Z,7.40
2017-10-13T01:44:09.763Z,3.53
2017-10-13T01:46:37.226Z,5.93
2017-10-13T01:49:04.685Z,3.57
2017-10-13T01:51:32.145Z,4.47
2017-10-13T01:53:59.742Z,4.50
2017-10-13T01:56:27.206Z,4.87
2017-10-13T01:58:54.659Z,2.40
2017-10-13T02:01:22.114Z,5.17
2017-10-13T02:03:49.575Z,3.30
2017-10-13T02:06:17.030Z,1.77
2017-10-13T02:08:44.486Z,2.53
2017-10-13T02:11:12.700Z,3.87
2017-10-13T02:13:40.158Z,4.20
2017-10-13T02:16:07.614Z,4.33
2017-10-13T02:18:35.076Z,3.20
2017-10-13T02:21:02.530Z,3.00
2017-10-13T02:23:30.007Z,3.60
2017-10-13T02:25:57.461Z,2.60
2017-10-13T02:28:24.926Z,3.53
2017-10-13T02:30:52.374Z,3.00
2017-10-13T02:33:19.829Z,4.90
2017-10-13T02:35:47.291Z,2.50
2017-10-13T02:38:14.751Z,3.90
2017-10-13T02:40:42.202Z,2.50
2017-10-13T02:43:09.663Z,2.53
2017-10-13T02:45:37.117Z,2.50
2017-10-13T02:48:04.582Z,5.17
2017-10-13T02:50:32.038Z,3.53
2017-10-13T02:52:59.491Z,3.43
2017-10-13T02:55:27.106Z,4.03
2017-10-13T02:57:54.557Z,2.00
2017-10-13T03:00:22.013Z,2.70
2017-10-13T03:02:49.465Z,5.93
2017-10-13T03:05:16.946Z,3.53
2017-10-13T03:07:45.157Z,3.30
2017-10-13T03:10:12.611Z,1.90
2017-10-13T03:12:40.070Z,2.90
2017-10-13T03:15:07.527Z,3.30
2017-10-13T03:17:34.988Z,1.77
2017-10-13T03:20:02.462Z,4.70
2017-10-13T03:22:29.916Z,2.50
2017-10-13T03:24:57.370Z,2.77
2017-10-13T03:27:24.827Z,5.83
2017-10-13T03:29:52.286Z,1.87
2017-10-13T03:32:19.733Z,4.00
2017-10-13T03:34:47.205Z,4.83
2017-10-13T03:37:14.658Z,4.47
2017-10-13T03:39:42.124Z,1.67
2017-10-13T03:42:09.648Z,3.00
2017-10-13T03:44:37.844Z,3.07
2017-10-13T03:47:05.298Z,2.37
2017-10-13T03:49:32.789Z,6.70
2017-10-13T03:52:00.243Z,3.93
2017-10-13T03:54:27.715Z,1.60
2017-10-13T03:56:55.182Z,2.80
2017-10-13T03:59:23.398Z,3.63
2017-10-13T04:01:50.857Z,2.87
2017-10-13T04:04:18.315Z,3.53
2017-10-13T04:06:45.769Z,3.67
2017-10-13T04:09:13.222Z,3.03
2017-10-13T04:11:40.685Z,5.60
2017-10-13T04:14:08.151Z,5.20
2017-10-13T04:16:35.606Z,2.60
2017-10-13T04:19:03.053Z,4.43
2017-10-13T04:21:30.514Z,4.80
2017-10-13T04:23:57.954Z,4.07
2017-10-13T04:26:25.425Z,9.00
2017-10-13T04:28:52.869Z,6.50
2017-10-13T04:31:20.326Z,2.30
2017-10-13T04:33:47.782Z,1.57
2017-10-13T04:36:15.239Z,2.47
2017-10-13T04:38:43.450Z,2.17
2017-10-13T04:41:10.894Z,3.83
2017-10-13T04:43:38.349Z,1.93
2017-10-13T04:46:05.810Z,2.20
2017-10-13T04:48:33.267Z,6.40
2017-10-13T04:51:00.709Z,3.20
2017-10-13T04:53:28.177Z,3.57
2017-10-13T04:55:55.694Z,4.23
2017-10-13T04:58:23.918Z,1.83
2017-10-13T05:00:51.362Z,5.13
2017-10-13T05:03:18.823Z,2.70
2017-10-13T05:05:46.274Z,2.70
2017-10-13T05:08:13.729Z,3.20
2017-10-13T05:13:15.154Z,2.77
2017-10-13T05:15:42.602Z,4.50
2017-10-13T05:18:10.112Z,3.00
2017-10-13T05:20:37.569Z,4.50
2017-10-13T05:23:05.031Z,2.00
2017-10-13T05:25:32.501Z,2.83
2017-10-13T05:27:59.984Z,2.87
2017-10-13T05:30:27.454Z,3.33
2017-10-13T05:32:55.730Z,2.83
2017-10-13T05:35:23.186Z,3.30
2017-10-13T05:37:50.654Z,2.60
2017-10-13T05:40:18.881Z,2.90
2017-10-13T05:42:46.326Z,1.60
2017-10-13T05:45:13.783Z,2.83
2017-10-13T05:47:41.226Z,3.60
2017-10-13T05:50:08.699Z,8.20
2017-10-13T05:52:36.138Z,5.67
2017-10-13T05:55:03.603Z,4.17
2017-10-13T05:57:31.047Z,6.07
2017-10-13T05:59:58.560Z,5.53
2017-10-13T06:02:26.001Z,5.50
2017-10-13T06:04:53.469Z,2.77
2017-10-13T06:07:20.935Z,3.33
2017-10-13T06:09:48.401Z,3.90
2017-10-13T06:12:15.850Z,3.23
2017-10-13T06:14:43.317Z,2.97
2017-10-13T06:17:10.770Z,3.70
2017-10-13T06:19:38.242Z,2.10
2017-10-13T06:22:06.456Z,6.30
2017-10-13T06:24:33.902Z,3.10
2017-10-13T06:27:01.364Z,2.73
2017-10-13T06:29:28.805Z,5.60
2017-10-13T06:31:57.053Z,6.73
2017-10-13T06:34:24.538Z,3.10
2017-10-13T06:36:52.754Z,2.53
2017-10-13T06:39:20.204Z,3.23
2017-10-13T06:41:47.661Z,5.97
2017-10-13T06:44:15.874Z,3.70
2017-10-13T06:46:43.342Z,3.37
2017-10-13T06:49:11.562Z,2.03
2017-10-13T06:51:39.025Z,2.80
2017-10-13T06:54:06.478Z,5.17
2017-10-13T06:56:34.023Z,3.13
2017-10-13T06:59:02.261Z,1.87
2017-10-13T07:01:29.727Z,2.80
2017-10-13T07:03:57.949Z,3.77
2017-10-13T07:06:25.411Z,3.27
2017-10-13T07:08:52.857Z,2.40
2017-10-13T07:11:20.312Z,4.80
2017-10-13T07:13:47.754Z,2.70
2017-10-13T07:16:15.230Z,2.90
2017-10-13T07:18:42.683Z,1.80
2017-10-13T07:21:10.150Z,5.67
2017-10-13T07:23:37.637Z,2.80
2017-10-13T07:26:05.086Z,2.10
2017-10-13T07:28:32.546Z,3.30
2017-10-13T07:31:00.043Z,3.43
2017-10-13T07:33:31.719Z,3.33
2017-10-13T07:35:59.792Z,5.33
2017-10-13T07:38:28.079Z,2.60
2017-10-13T07:40:55.526Z,4.73
2017-10-13T07:43:22.979Z,2.40
2017-10-13T07:45:50.433Z,2.10
2017-10-13T07:48:18.654Z,2.77
2017-10-13T07:50:46.118Z,3.63
2017-10-13T07:53:13.564Z,2.70
2017-10-13T07:55:41.051Z,2.10
2017-10-13T07:58:08.506Z,5.93
2017-10-13T08:00:35.961Z,4.43
2017-10-13T08:03:03.410Z,4.83
2017-10-13T08:05:30.866Z,5.30
2017-10-13T08:07:58.351Z,2.70
2017-10-13T08:10:26.678Z,8.10
2017-10-13T08:12:54.121Z,2.43
2017-10-13T08:15:21.574Z,2.93
2017-10-13T08:17:49.036Z,2.63
2017-10-13T08:20:17.261Z,5.47
2017-10-13T08:22:44.709Z,4.70
2017-10-13T08:25:12.158Z,4.67
2017-10-13T08:27:39.605Z,4.00
2017-10-13T08:30:07.831Z,8.83
2017-10-13T08:32:35.314Z,4.70
2017-10-13T08:35:03.543Z,4.00
2017-10-13T08:37:31.002Z,3.87
2017-10-13T08:39:59.234Z,3.87
2017-10-13T08:42:26.685Z,4.50
2017-10-13T08:44:54.153Z,2.60
2017-10-13T08:47:21.594Z,7.27
2017-10-13T08:49:49.810Z,6.97
2017-10-13T08:52:17.284Z,5.97
2017-10-13T08:54:45.517Z,4.10
2017-10-13T08:57:13.722Z,5.07
2017-10-13T08:59:41.181Z,4.23
2017-10-13T09:02:08.632Z,4.57
2017-10-13T09:04:36.112Z,5.87
2017-10-13T09:07:04.342Z,2.77
2017-10-13T09:09:31.782Z,4.40
2017-10-13T09:11:59.250Z,5.63
2017-10-13T09:14:26.689Z,5.17
2017-10-13T09:16:54.911Z,6.77
2017-10-13T09:19:22.373Z,5.80
2017-10-13T09:21:52.751Z,4.57
2017-10-13T09:24:20.210Z,5.77
2017-10-13T09:26:47.682Z,6.30
2017-10-13T09:29:15.138Z,2.60
2017-10-13T09:31:42.593Z,6.40
2017-10-13T09:34:10.046Z,3.10
2017-10-13T09:36:37.521Z,5.70
2017-10-13T09:39:05.001Z,3.83
2017-10-13T09:41:33.235Z,7.67
2017-10-13T09:44:00.700Z,3.97
2017-10-13T09:46:28.159Z,4.23
2017-10-13T09:48:55.630Z,4.40
2017-10-13T09:51:23.886Z,4.40
2017-10-13T09:53:51.347Z,3.97
2017-10-13T09:56:18.801Z,3.10
2017-10-13T09:58:46.273Z,5.73
2017-10-13T10:01:13.723Z,2.90
2017-10-13T10:03:41.942Z,8.40
2017-10-13T10:06:10.168Z,3.63
2017-10-13T10:08:37.630Z,4.67
2017-10-13T10:11:05.086Z,5.27
2017-10-13T10:13:32.554Z,4.17
2017-10-13T10:16:00.792Z,4.00
2017-10-13T10:18:28.253Z,5.67
2017-10-13T10:20:55.706Z,8.10
2017-10-13T10:23:23.169Z,4.10
2017-10-13T10:25:50.625Z,3.27
2017-10-13T10:28:18.852Z,4.17
2017-10-13T10:30:46.304Z,6.70
2017-10-13T10:33:13.749Z,7.67
2017-10-13T10:35:41.217Z,4.07
2017-10-13T10:38:08.663Z,6.73
2017-10-13T10:40:36.131Z,7.23
2017-10-13T10:43:03.579Z,6.63
2017-10-13T10:45:31.047Z,4.90
2017-10-13T10:47:58.504Z,5.70
2017-10-13T10:50:25.965Z,4.27
2017-10-13T10:52:53.421Z,2.60
2017-10-13T10:55:20.874Z,9.50
2017-10-13T10:57:48.317Z,5.13
2017-10-13T11:00:15.791Z,3.80
2017-10-13T11:02:43.233Z,5.40
2017-10-13T11:05:11.473Z,3.80
2017-10-13T11:07:38.944Z,5.50
2017-10-13T11:10:06.409Z,6.83
2017-10-13T11:12:33.860Z,6.10
2017-10-13T11:15:01.318Z,4.57
2017-10-13T11:17:28.792Z,3.80
2017-10-13T11:19:56.233Z,3.63
2017-10-13T11:22:23.694Z,4.63
2017-10-13T11:24:51.134Z,4.47
2017-10-13T11:27:18.624Z,5.23
2017-10-13T11:29:46.070Z,4.13
2017-10-13T11:32:13.525Z,3.87
2017-10-13T11:34:40.986Z,7.13
2017-10-13T11:37:08.515Z,3.07
2017-10-13T11:39:35.976Z,6.60
2017-10-13T11:42:03.434Z,6.00
2017-10-13T11:44:30.891Z,3.00
2017-10-13T11:46:58.342Z,4.40
2017-10-13T11:49:25.795Z,4.97
2017-10-13T11:51:54.014Z,4.67
2017-10-13T11:54:21.471Z,3.83
2017-10-13T11:56:48.927Z,6.07
2017-10-13T11:59:16.410Z,4.10
2017-10-13T12:01:43.865Z,3.47
2017-10-13T12:04:12.114Z,2.87
2017-10-13T12:06:39.566Z,4.87
2017-10-13T12:09:07.034Z,4.77
2017-10-13T12:11:34.495Z,4.03
2017-10-13T12:14:01.933Z,6.10
2017-10-13T12:16:29.390Z,4.50
2017-10-13T12:18:56.883Z,5.00
2017-10-13T12:21:24.346Z,5.77
2017-10-13T12:23:51.806Z,4.03
2017-10-13T12:26:19.252Z,6.80
2017-10-13T12:28:47.487Z,6.50
2017-10-13T12:31:14.955Z,5.07
2017-10-13T12:33:42.426Z,6.30
2017-10-13T12:36:09.871Z,6.47
2017-10-13T12:38:37.326Z,6.80
2017-10-13T12:41:04.795Z,4.40
2017-10-13T12:43:32.250Z,4.70
2017-10-13T12:45:59.776Z,6.03
2017-10-13T12:48:27.250Z,3.70
2017-10-13T12:50:54.723Z,4.27
2017-10-13T12:53:22.179Z,4.40
2017-10-13T12:55:49.643Z,5.53
2017-10-13T12:58:17.885Z,4.80
2017-10-13T13:00:45.334Z,4.20
2017-10-13T13:03:12.791Z,4.13
2017-10-13T13:05:40.247Z,4.77
2017-10-13T13:08:07.702Z,4.53
2017-10-13T13:10:35.161Z,4.63
2017-10-13T13:13:02.618Z,3.17
2017-10-13T13:15:30.082Z,2.90
2017-10-13T13:17:57.534Z,5.47
2017-10-13T13:20:25.068Z,3.70
2017-10-13T13:22:53.291Z,3.43
2017-10-13T13:25:20.774Z,3.73
2017-10-13T13:27:49.004Z,3.57
2017-10-13T13:30:16.458Z,3.80
2017-10-13T13:32:43.931Z,3.93
2017-10-13T13:35:11.390Z,4.70
2017-10-13T13:37:39.607Z,5.17
2017-10-13T13:40:07.063Z,4.50
2017-10-13T13:42:34.518Z,4.90
2017-10-13T13:45:02.033Z,6.47
2017-10-13T13:47:29.495Z,4.93
2017-10-13T13:49:56.958Z,7.43
2017-10-13T13:52:24.425Z,5.20
2017-10-13T13:54:51.874Z,4.37
2017-10-13T13:57:20.094Z,5.00
2017-10-13T13:59:47.545Z,4.80
2017-10-13T14:02:15.799Z,4.63
2017-10-13T14:04:43.277Z,4.63
2017-10-13T14:07:10.742Z,4.80
2017-10-13T14:09:38.977Z,4.70
2017-10-13T14:12:07.199Z,5.00
2017-10-13T14:14:34.659Z,4.97
2017-10-13T14:17:02.882Z,4.27
2017-10-13T14:19:30.350Z,5.80
2017-10-13T14:21:57.825Z,4.70
2017-10-13T14:24:25.295Z,7.77
2017-10-13T14:26:53.535Z,3.20
2017-10-13T14:29:20.994Z,5.27
2017-10-13T14:31:48.479Z,5.97
2017-10-13T14:34:15.946Z,7.23
2017-10-13T14:36:43.386Z,8.70
2017-10-13T14:39:10.850Z,7.43
2017-10-13T14:41:38.297Z,6.60
2017-10-13T14:44:06.573Z,3.57
2017-10-13T14:46:34.027Z,5.20
2017-10-13T14:49:02.283Z,3.33
2017-10-13T14:51:29.744Z,5.13
2017-10-13T14:53:57.997Z,4.33
2017-10-13T14:56:25.468Z,4.80
2017-10-13T14:58:52.930Z,4.30
2017-10-13T15:01:20.398Z,4.43
2017-10-13T15:03:47.869Z,6.60
2017-10-13T15:06:15.338Z,5.20
2017-10-13T15:08:42.783Z,4.40
2017-10-13T15:11:10.250Z,3.27
2017-10-13T15:13:37.708Z,10.13
2017-10-13T15:16:05.166Z,3.47
2017-10-13T15:18:32.615Z,12.93
2017-10-13T15:21:00.064Z,17.73
2017-10-13T15:23:27.539Z,14.83
2017-10-13T15:25:55.014Z,15.40
2017-10-13T15:28:28.187Z,17.77
2017-10-13T15:31:01.589Z,13.40
2017-10-13T15:36:32.730Z,14.20
2017-10-13T15:39:05.914Z,10.23
2017-10-13T15:41:39.002Z,18.77
2017-10-13T15:44:12.013Z,13.23
2017-10-13T15:46:45.166Z,10.00
2017-10-13T15:49:18.324Z,8.13
2017-10-13T15:51:52.116Z,9.17
2017-10-13T15:54:19.557Z,10.00
2017-10-13T15:56:47.060Z,9.50
2017-10-13T15:59:14.513Z,8.93
2017-10-13T16:01:42.734Z,7.07
2017-10-13T16:04:10.203Z,10.43
2017-10-13T16:06:37.702Z,9.80
2017-10-13T16:09:05.163Z,8.90
2017-10-13T16:11:32.610Z,12.93
2017-10-13T16:14:00.074Z,7.37
2017-10-13T16:16:27.547Z,9.80
2017-10-13T16:18:54.998Z,8.60
2017-10-13T16:21:22.467Z,5.83
2017-10-13T16:23:50.678Z,10.33
2017-10-13T16:26:18.133Z,9.77
2017-10-13T16:28:45.583Z,7.73
2017-10-13T16:31:13.038Z,7.50
2017-10-13T16:33:41.265Z,15.33
2017-10-13T16:36:08.756Z,10.67
2017-10-13T16:38:36.996Z,10.10
2017-10-13T16:41:04.456Z,7.23
2017-10-13T16:43:31.922Z,5.27
2017-10-13T16:45:59.367Z,8.50
2017-10-13T16:48:26.822Z,8.50
2017-10-13T16:50:55.048Z,8.20
2017-10-13T16:53:22.510Z,7.40
2017-10-13T16:55:49.971Z,7.37
2017-10-13T16:58:17.498Z,8.40
2017-10-13T17:00:44.967Z,7.07
2017-10-13T17:03:12.439Z,8.67
2017-10-13T17:05:39.882Z,7.57
2017-10-13T17:08:07.341Z,9.80
2017-10-13T17:10:34.822Z,7.23
2017-10-13T17:13:02.270Z,7.53
2017-10-13T17:15:29.722Z,6.07
2017-10-13T17:17:57.173Z,6.70
2017-10-13T17:20:24.630Z,10.97
2017-10-13T17:22:52.110Z,5.77
2017-10-13T17:25:19.572Z,6.53
2017-10-13T17:27:47.018Z,4.73
2017-10-13T17:30:14.497Z,7.87
2017-10-13T17:32:41.950Z,7.00
2017-10-13T17:35:10.181Z,7.40
2017-10-13T17:37:37.647Z,5.60
2017-10-13T17:40:05.121Z,6.93
2017-10-13T17:42:32.579Z,10.03
2017-10-13T17:45:00.031Z,4.93
2017-10-13T17:47:27.505Z,6.20
2017-10-13T17:49:54.958Z,4.90
2017-10-13T17:52:22.418Z,5.73
2017-10-13T17:54:49.881Z,5.23
2017-10-13T17:57:17.323Z,7.40
2017-10-13T17:59:44.774Z,6.27
2017-10-13T18:02:12.235Z,5.30
2017-10-13T18:04:39.686Z,5.00
2017-10-13T18:07:07.143Z,4.90
2017-10-13T18:09:34.603Z,6.40
2017-10-13T18:12:02.059Z,5.47
2017-10-13T18:14:29.515Z,6.03
2017-10-13T18:16:56.978Z,5.77
2017-10-13T18:19:24.429Z,6.27
2017-10-13T18:21:52.987Z,6.80
2017-10-13T18:24:21.196Z,8.20
2017-10-13T18:26:48.653Z,7.73
2017-10-13T18:29:16.116Z,4.40
2017-10-13T18:31:43.563Z,7.53
2017-10-13T18:34:11.007Z,8.60
2017-10-13T18:36:38.573Z,5.53
2017-10-13T18:39:06.024Z,7.10
2017-10-13T18:41:33.488Z,4.60
2017-10-13T18:44:01.797Z,7.67
2017-10-13T18:46:29.933Z,7.37
2017-10-13T18:48:57.645Z,7.43
2017-10-13T18:51:25.157Z,6.60
2017-10-13T18:53:52.606Z,5.67
2017-10-13T18:56:20.909Z,6.80
2017-10-13T18:58:48.541Z,4.53
2017-10-13T19:01:16.381Z,6.67
2017-10-13T19:03:44.609Z,5.17
2017-10-13T19:06:12.544Z,5.67
2017-10-13T19:08:39.992Z,4.50
2017-10-13T19:11:08.210Z,5.63
2017-10-13T19:13:35.670Z,7.67
2017-10-13T19:16:03.118Z,5.97
2017-10-13T19:18:30.968Z,5.93
2017-10-13T19:20:58.424Z,5.70
2017-10-13T19:23:26.568Z,6.23
2017-10-13T19:25:55.078Z,5.00
2017-10-13T19:28:22.526Z,4.70
2017-10-13T19:30:49.987Z,6.10
2017-10-13T19:33:17.445Z,4.93
2017-10-13T19:35:44.939Z,5.83
2017-10-13T19:38:12.395Z,6.27
2017-10-13T19:40:39.850Z,4.90
2017-10-13T19:43:07.322Z,4.53
2017-10-13T19:45:34.785Z,5.50
2017-10-13T19:48:02.254Z,4.40
2017-10-13T19:50:29.735Z,4.40
2017-10-13T19:52:57.372Z,6.50
2017-10-13T19:55:25.598Z,4.77
2017-10-13T19:57:53.045Z,4.07
2017-10-13T20:00:20.506Z,4.17
2017-10-13T20:02:47.974Z,5.07
2017-10-13T20:05:15.429Z,5.97
2017-10-13T20:07:42.884Z,4.00
2017-10-13T20:10:10.339Z,5.37
2017-10-13T20:12:37.790Z,4.33
2017-10-13T20:15:05.252Z,4.60
2017-10-13T20:17:32.721Z,4.43
2017-10-13T20:20:00.169Z,4.23
2017-10-13T20:22:27.618Z,5.43
2017-10-13T20:24:55.087Z,4.50
2017-10-13T20:27:22.555Z,5.70
2017-10-13T20:29:50.011Z,3.63
2017-10-13T20:32:17.461Z,6.20
2017-10-13T20:34:44.906Z,3.80
2017-10-13T20:37:12.363Z,5.03
2017-10-13T20:39:39.810Z,4.90
2017-10-13T20:42:07.271Z,6.43
2017-10-13T20:44:34.746Z,4.60
2017-10-13T20:47:02.206Z,4.83
2017-10-13T20:49:29.653Z,5.90
2017-10-13T20:51:57.138Z,4.73
2017-10-13T20:54:24.584Z,5.67
2017-10-13T20:56:52.029Z,4.57
2017-10-13T20:59:19.478Z,4.83
2017-10-13T21:01:46.953Z,4.10
2017-10-13T21:04:14.394Z,5.13
2017-10-13T21:06:41.855Z,4.70
2017-10-13T21:09:09.305Z,4.73
2017-10-13T21:11:36.776Z,4.07
2017-10-13T21:14:04.197Z,3.87
2017-10-13T21:16:31.666Z,4.23
2017-10-13T21:18:59.113Z,4.07
2017-10-13T21:21:26.589Z,3.90
2017-10-13T21:23:54.042Z,4.33
2017-10-13T21:26:21.492Z,4.10
2017-10-13T21:28:48.941Z,5.97
2017-10-13T21:31:16.446Z,5.43
2017-10-13T21:33:43.894Z,4.10
2017-10-13T21:36:11.337Z,4.00
2017-10-13T21:38:38.793Z,5.00
2017-10-13T21:41:06.247Z,3.60
2017-10-13T21:43:33.705Z,4.60
2017-10-13T21:46:01.155Z,5.63
2017-10-13T21:48:28.658Z,4.50
2017-10-13T21:50:56.093Z,4.57
2017-10-13T21:53:23.541Z,5.40
2017-10-13T21:55:50.986Z,5.30
2017-10-13T21:58:18.458Z,4.07
2017-10-13T22:00:45.903Z,5.40
2017-10-13T22:03:13.366Z,5.13
2017-10-13T22:05:40.811Z,5.10
2017-10-13T22:08:08.277Z,4.20
2017-10-13T22:10:35.729Z,4.00
2017-10-13T22:13:03.178Z,5.63
2017-10-13T22:15:30.639Z,3.93
2017-10-13T22:17:58.093Z,3.87
2017-10-13T22:20:25.558Z,3.80
2017-10-13T22:22:53.014Z,4.50
2017-10-13T22:25:20.466Z,4.10
2017-10-13T22:27:47.914Z,4.53
2017-10-13T22:30:15.382Z,4.40
2017-10-13T22:32:42.830Z,4.63
2017-10-13T22:35:10.299Z,4.70
2017-10-13T22:37:37.734Z,4.07
2017-10-13T22:40:05.239Z,5.20
2017-10-13T22:42:32.686Z,5.27
2017-10-13T22:45:00.133Z,4.03
2017-10-13T22:47:27.594Z,3.90
2017-10-13T22:49:55.066Z,4.63
2017-10-13T22:52:22.506Z,4.17
2017-10-13T22:54:49.961Z,3.90
2017-10-13T22:57:17.414Z,4.20
2017-10-13T22:59:44.891Z,4.60
2017-10-13T23:02:12.353Z,4.53
2017-10-13T23:04:39.830Z,4.20
2017-10-13T23:07:07.278Z,4.27
2017-10-13T23:09:34.721Z,4.73
2017-10-13T23:12:02.190Z,4.10
2017-10-13T23:14:29.653Z,5.03
2017-10-13T23:16:57.101Z,3.93
2017-10-13T23:19:24.552Z,4.13
2017-10-13T23:21:52.034Z,3.63
2017-10-13T23:24:19.486Z,4.30
2017-10-13T23:26:46.945Z,4.30
2017-10-13T23:29:14.395Z,4.20
2017-10-13T23:31:41.856Z,4.43
2017-10-13T23:34:09.314Z,3.93
2017-10-13T23:36:36.790Z,4.43
2017-10-13T23:39:05.019Z,4.27
2017-10-13T23:41:32.462Z,4.37
2017-10-13T23:43:59.922Z,3.83
2017-10-13T23:46:27.377Z,4.23
2017-10-13T23:48:54.838Z,4.53
2017-10-13T23:51:22.295Z,4.30
2017-10-13T23:53:49.762Z,4.20
2017-10-13T23:56:17.214Z,3.50
2017-10-13T23:58:44.673Z,4.20
